Portada
METAR-TAF:

METAR-TAF

Aeropuertos :

Base Aérea de Alcantarilla

Murcia, España

latitud: 37-57N, longitud: 001-14W, altitud: 75 m

Observación

El informe se hizo hace 9 horas y 57 minutos, a las 18:00 UTC
Viento 2 kt con dirección variable
Temperatura 20°C
Humedad 56%
Presión 1009 hPa
Visibilidad 10 km o más
sin nubes por debajo de 1500 m y sin presencia de cumulonimbus.

METAR: LERI 151800Z VRB02KT CAVOK 20/11 Q1009 NOSIG

Hora: 05:57 (03:57 UTC)

Pronóstico

El informe se hizo hace 1 hora y 57 minutos, a las 02:00 UTC
Pronóstico válido del 16 a las 03 UTC al 16 a las 12 UTC
Viento 4 kt del oeste
Visibilidad 10 km o más
Escasas nubes a una altura de 2000 ft
Nubes dispersas a una altura de 3000 ft
Temporalmente
del 16 a las 03 UTC al 16 a las 09 UTC
Visibilidad: 4000 m
Cielo nuboso a una altura de 1400 ft
lluvia

TAF: LERI 160200Z 1603/1612 26004KT 9999 FEW020 SCT030 TEMPO 1603/1609 4000 RA BKN014

Observaciones y pronósticos meteorológicos de más de 4000 aeropuertos (mensajes METAR y TAF).

Los puntos amarillos y rojos representan las estaciones disponibles.

Ponga el ratón en el punto deseado para ver el nombre de la estación.

Haga clic para ver las observaciones y los pronósticos meteorológicos.

Para cambiar el mapa : haga clic en los botones verdes con una cruz de color negro para hacer un zoom, en el botón verde con un guión para alejar o en las flechas verdes para mapas adyacentes.


METAR-TAF: